sensor_id;sensor_type;location;lat;lon;timestamp;temperature;humidity
25482;DHT22;13395;50.752;4.268;2023-07-28T00:12:34;19.10;99.90
25482;DHT22;13395;50.752;4.268;2023-07-28T00:15:00;19.20;99.90
25482;DHT22;13395;50.752;4.268;2023-07-28T00:17:26;19.20;99.90
25482;DHT22;13395;50.752;4.268;2023-07-28T00:19:51;19.20;99.90
25482;DHT22;13395;50.752;4.268;2023-07-28T00:22:17;19.30;99.90
25482;DHT22;13395;50.752;4.268;2023-07-28T00:24:42;19.20;99.90
25482;DHT22;13395;50.752;4.268;2023-07-28T00:27:08;19.10;99.90
25482;DHT22;13395;50.752;4.268;2023-07-28T00:29:33;19.10;99.90
25482;DHT22;13395;50.752;4.268;2023-07-28T00:31:59;19.10;99.90
25482;DHT22;13395;50.752;4.268;2023-07-28T00:34:24;19.10;99.90
25482;DHT22;13395;50.752;4.268;2023-07-28T00:36:50;19.10;99.90
25482;DHT22;13395;50.752;4.268;2023-07-28T00:39:15;19.20;99.90
25482;DHT22;13395;50.752;4.268;2023-07-28T00:41:41;19.20;99.90
25482;DHT22;13395;50.752;4.268;2023-07-28T00:44:07;19.30;99.90
25482;DHT22;13395;50.752;4.268;2023-07-28T00:46:32;19.30;99.90
25482;DHT22;13395;50.752;4.268;2023-07-28T00:48:58;19.20;99.90
25482;DHT22;13395;50.752;4.268;2023-07-28T00:51:23;19.20;99.90
25482;DHT22;13395;50.752;4.268;2023-07-28T00:53:50;19.20;99.90
25482;DHT22;13395;50.752;4.268;2023-07-28T00:56:19;19.20;99.90
25482;DHT22;13395;50.752;4.268;2023-07-28T00:58:45;19.30;99.90
25482;DHT22;13395;50.752;4.268;2023-07-28T01:11:32;19.20;99.90
25482;DHT22;13395;50.752;4.268;2023-07-28T01:13:58;19.30;99.90
25482;DHT22;13395;50.752;4.268;2023-07-28T01:18:59;19.20;99.90
25482;DHT22;13395;50.752;4.268;2023-07-28T01:24:27;19.20;99.90
25482;DHT22;13395;50.752;4.268;2023-07-28T01:26:54;19.10;99.90
25482;DHT22;13395;50.752;4.268;2023-07-28T01:29:20;19.10;99.90
25482;DHT22;13395;50.752;4.268;2023-07-28T01:31:47;19.10;99.90
25482;DHT22;13395;50.752;4.268;2023-07-28T01:34:13;19.10;99.90
25482;DHT22;13395;50.752;4.268;2023-07-28T01:36:39;19.20;99.90
25482;DHT22;13395;50.752;4.268;2023-07-28T01:39:04;19.20;99.90
25482;DHT22;13395;50.752;4.268;2023-07-28T01:41:30;19.10;99.90
25482;DHT22;13395;50.752;4.268;2023-07-28T01:43:56;19.30;99.90
25482;DHT22;13395;50.752;4.268;2023-07-28T01:46:22;19.20;99.90
25482;DHT22;13395;50.752;4.268;2023-07-28T01:48:47;19.20;99.90
25482;DHT22;13395;50.752;4.268;2023-07-28T01:51:13;19.20;99.90
25482;DHT22;13395;50.752;4.268;2023-07-28T01:53:39;19.20;99.90
25482;DHT22;13395;50.752;4.268;2023-07-28T01:56:04;19.10;99.90
25482;DHT22;13395;50.752;4.268;2023-07-28T01:58:30;19.20;99.90
25482;DHT22;13395;50.752;4.268;2023-07-28T02:00:55;19.20;99.90
25482;DHT22;13395;50.752;4.268;2023-07-28T02:03:21;19.20;99.90
25482;DHT22;13395;50.752;4.268;2023-07-28T02:05:47;19.20;99.90
25482;DHT22;13395;50.752;4.268;2023-07-28T02:08:12;19.30;99.90
25482;DHT22;13395;50.752;4.268;2023-07-28T02:20:59;19.30;99.90
25482;DHT22;13395;50.752;4.268;2023-07-28T02:23:25;19.30;99.90
25482;DHT22;13395;50.752;4.268;2023-07-28T02:25:51;19.30;99.90
25482;DHT22;13395;50.752;4.268;2023-07-28T02:28:16;19.40;99.90
25482;DHT22;13395;50.752;4.268;2023-07-28T02:30:42;19.40;99.90
25482;DHT22;13395;50.752;4.268;2023-07-28T02:33:07;19.40;99.90
25482;DHT22;13395;50.752;4.268;2023-07-28T02:35:33;19.40;99.90
25482;DHT22;13395;50.752;4.268;2023-07-28T02:37:58;19.40;99.90
25482;DHT22;13395;50.752;4.268;2023-07-28T02:40:24;19.40;99.90
25482;DHT22;13395;50.752;4.268;2023-07-28T02:42:50;19.40;99.90
25482;DHT22;13395;50.752;4.268;2023-07-28T02:45:15;19.40;99.90
25482;DHT22;13395;50.752;4.268;2023-07-28T02:47:41;19.40;99.90
25482;DHT22;13395;50.752;4.268;2023-07-28T02:50:06;19.40;99.90
25482;DHT22;13395;50.752;4.268;2023-07-28T02:52:32;19.40;99.90
25482;DHT22;13395;50.752;4.268;2023-07-28T02:54:58;19.40;99.90
25482;DHT22;13395;50.752;4.268;2023-07-28T02:57:23;19.40;99.90
25482;DHT22;13395;50.752;4.268;2023-07-28T02:59:49;19.50;99.90
25482;DHT22;13395;50.752;4.268;2023-07-28T03:02:14;19.50;99.90
25482;DHT22;13395;50.752;4.268;2023-07-28T03:04:40;19.50;99.90
25482;DHT22;13395;50.752;4.268;2023-07-28T03:07:06;19.50;99.90
25482;DHT22;13395;50.752;4.268;2023-07-28T03:09:31;19.50;99.90
25482;DHT22;13395;50.752;4.268;2023-07-28T03:11:57;19.40;99.90
25482;DHT22;13395;50.752;4.268;2023-07-28T03:14:23;19.40;99.90
25482;DHT22;13395;50.752;4.268;2023-07-28T03:16:48;19.50;99.90
25482;DHT22;13395;50.752;4.268;2023-07-28T03:19:14;19.40;99.90
25482;DHT22;13395;50.752;4.268;2023-07-28T03:21:39;19.40;99.90
25482;DHT22;13395;50.752;4.268;2023-07-28T03:24:05;19.40;99.90
25482;DHT22;13395;50.752;4.268;2023-07-28T03:26:31;19.40;99.90
25482;DHT22;13395;50.752;4.268;2023-07-28T03:28:56;19.40;99.90
25482;DHT22;13395;50.752;4.268;2023-07-28T03:31:22;19.40;99.90
25482;DHT22;13395;50.752;4.268;2023-07-28T03:33:48;19.40;99.90
25482;DHT22;13395;50.752;4.268;2023-07-28T03:36:13;19.50;99.90
25482;DHT22;13395;50.752;4.268;2023-07-28T03:38:39;19.50;99.90
25482;DHT22;13395;50.752;4.268;2023-07-28T03:41:04;19.50;99.90
25482;DHT22;13395;50.752;4.268;2023-07-28T03:43:33;19.40;99.90
25482;DHT22;13395;50.752;4.268;2023-07-28T03:45:59;19.40;99.90
25482;DHT22;13395;50.752;4.268;2023-07-28T03:48:24;19.50;99.90
25482;DHT22;13395;50.752;4.268;2023-07-28T03:50:50;19.40;99.90
25482;DHT22;13395;50.752;4.268;2023-07-28T03:53:15;19.40;99.90
25482;DHT22;13395;50.752;4.268;2023-07-28T03:55:41;19.50;99.90
25482;DHT22;13395;50.752;4.268;2023-07-28T03:58:07;19.40;99.90
25482;DHT22;13395;50.752;4.268;2023-07-28T04:00:33;19.40;99.90
25482;DHT22;13395;50.752;4.268;2023-07-28T04:02:58;19.50;99.90
25482;DHT22;13395;50.752;4.268;2023-07-28T04:05:24;19.40;99.90
25482;DHT22;13395;50.752;4.268;2023-07-28T04:07:50;19.40;99.90
25482;DHT22;13395;50.752;4.268;2023-07-28T04:10:15;19.40;99.90
25482;DHT22;13395;50.752;4.268;2023-07-28T04:12:41;19.40;99.90
25482;DHT22;13395;50.752;4.268;2023-07-28T04:15:07;19.40;99.90
25482;DHT22;13395;50.752;4.268;2023-07-28T04:17:32;19.40;99.90
25482;DHT22;13395;50.752;4.268;2023-07-28T04:19:58;19.40;99.90
25482;DHT22;13395;50.752;4.268;2023-07-28T04:22:24;19.40;99.90
25482;DHT22;13395;50.752;4.268;2023-07-28T04:24:49;19.40;99.90
25482;DHT22;13395;50.752;4.268;2023-07-28T04:27:15;19.50;99.90
25482;DHT22;13395;50.752;4.268;2023-07-28T04:29:41;19.50;99.90
25482;DHT22;13395;50.752;4.268;2023-07-28T04:32:07;19.50;99.90
25482;DHT22;13395;50.752;4.268;2023-07-28T04:34:35;19.50;99.90
25482;DHT22;13395;50.752;4.268;2023-07-28T04:37:01;19.50;99.90
25482;DHT22;13395;50.752;4.268;2023-07-28T04:39:27;19.60;99.90
25482;DHT22;13395;50.752;4.268;2023-07-28T04:41:52;19.60;99.90
25482;DHT22;13395;50.752;4.268;2023-07-28T04:44:18;19.50;99.90
25482;DHT22;13395;50.752;4.268;2023-07-28T04:46:45;19.40;99.90
25482;DHT22;13395;50.752;4.268;2023-07-28T04:49:13;19.40;99.90
25482;DHT22;13395;50.752;4.268;2023-07-28T04:54:14;19.50;99.90
25482;DHT22;13395;50.752;4.268;2023-07-28T04:56:39;19.50;99.90
25482;DHT22;13395;50.752;4.268;2023-07-28T04:59:05;19.50;99.90
25482;DHT22;13395;50.752;4.268;2023-07-28T05:01:33;19.50;99.90
25482;DHT22;13395;50.752;4.268;2023-07-28T05:03:58;19.50;99.90
25482;DHT22;13395;50.752;4.268;2023-07-28T05:06:24;19.50;99.90
25482;DHT22;13395;50.752;4.268;2023-07-28T05:08:49;19.50;99.90
25482;DHT22;13395;50.752;4.268;2023-07-28T05:11:15;19.50;99.90
25482;DHT22;13395;50.752;4.268;2023-07-28T05:13:40;19.60;99.90
25482;DHT22;13395;50.752;4.268;2023-07-28T05:16:06;19.70;99.90
25482;DHT22;13395;50.752;4.268;2023-07-28T05:18:31;19.70;99.90
25482;DHT22;13395;50.752;4.268;2023-07-28T05:20:57;19.80;99.90
25482;DHT22;13395;50.752;4.268;2023-07-28T05:23:23;19.80;99.90
25482;DHT22;13395;50.752;4.268;2023-07-28T05:25:48;19.80;99.90
25482;DHT22;13395;50.752;4.268;2023-07-28T05:28:14;19.80;99.90
25482;DHT22;13395;50.752;4.268;2023-07-28T05:30:39;19.80;99.90
25482;DHT22;13395;50.752;4.268;2023-07-28T05:33:05;19.90;99.90
25482;DHT22;13395;50.752;4.268;2023-07-28T05:35:30;19.90;99.90
25482;DHT22;13395;50.752;4.268;2023-07-28T05:37:56;19.90;99.90
25482;DHT22;13395;50.752;4.268;2023-07-28T05:40:21;19.90;99.90
25482;DHT22;13395;50.752;4.268;2023-07-28T05:42:47;19.90;99.90
25482;DHT22;13395;50.752;4.268;2023-07-28T05:45:13;20.00;99.90
25482;DHT22;13395;50.752;4.268;2023-07-28T05:47:38;20.00;99.90
25482;DHT22;13395;50.752;4.268;2023-07-28T05:50:04;20.00;99.90
25482;DHT22;13395;50.752;4.268;2023-07-28T05:52:30;20.00;99.90
25482;DHT22;13395;50.752;4.268;2023-07-28T05:54:56;20.10;99.90
25482;DHT22;13395;50.752;4.268;2023-07-28T05:57:22;20.20;99.90
25482;DHT22;13395;50.752;4.268;2023-07-28T05:59:47;20.30;99.90
25482;DHT22;13395;50.752;4.268;2023-07-28T06:02:13;20.30;99.90
25482;DHT22;13395;50.752;4.268;2023-07-28T06:04:41;20.30;99.90
25482;DHT22;13395;50.752;4.268;2023-07-28T06:07:07;20.30;99.90
25482;DHT22;13395;50.752;4.268;2023-07-28T06:09:32;20.20;99.90
25482;DHT22;13395;50.752;4.268;2023-07-28T06:11:58;20.20;99.90
25482;DHT22;13395;50.752;4.268;2023-07-28T06:14:24;20.20;99.90
25482;DHT22;13395;50.752;4.268;2023-07-28T06:16:50;20.20;99.90
25482;DHT22;13395;50.752;4.268;2023-07-28T06:19:15;20.20;99.90
25482;DHT22;13395;50.752;4.268;2023-07-28T06:21:42;20.30;99.90
25482;DHT22;13395;50.752;4.268;2023-07-28T06:24:07;20.50;99.90
25482;DHT22;13395;50.752;4.268;2023-07-28T06:26:33;20.60;99.90
25482;DHT22;13395;50.752;4.268;2023-07-28T06:28:58;20.70;99.90
25482;DHT22;13395;50.752;4.268;2023-07-28T06:31:24;20.80;99.90
25482;DHT22;13395;50.752;4.268;2023-07-28T06:33:50;20.70;99.90
25482;DHT22;13395;50.752;4.268;2023-07-28T06:36:15;20.70;99.90
25482;DHT22;13395;50.752;4.268;2023-07-28T06:38:43;20.80;99.90
25482;DHT22;13395;50.752;4.268;2023-07-28T06:41:11;20.90;99.90
25482;DHT22;13395;50.752;4.268;2023-07-28T06:43:36;21.00;99.90
25482;DHT22;13395;50.752;4.268;2023-07-28T06:46:02;21.00;99.90
25482;DHT22;13395;50.752;4.268;2023-07-28T06:48:27;21.00;99.90
25482;DHT22;13395;50.752;4.268;2023-07-28T06:50:53;21.10;99.90
25482;DHT22;13395;50.752;4.268;2023-07-28T06:53:19;20.90;99.90
25482;DHT22;13395;50.752;4.268;2023-07-28T06:55:45;21.00;99.90
25482;DHT22;13395;50.752;4.268;2023-07-28T06:58:10;21.00;99.90
25482;DHT22;13395;50.752;4.268;2023-07-28T07:00:36;21.10;99.90
25482;DHT22;13395;50.752;4.268;2023-07-28T07:03:02;21.20;99.90
25482;DHT22;13395;50.752;4.268;2023-07-28T07:05:27;21.30;99.90
25482;DHT22;13395;50.752;4.268;2023-07-28T07:07:53;21.40;99.90
25482;DHT22;13395;50.752;4.268;2023-07-28T07:10:20;21.50;99.90
25482;DHT22;13395;50.752;4.268;2023-07-28T07:12:46;21.50;99.90
25482;DHT22;13395;50.752;4.268;2023-07-28T07:15:11;21.50;99.90
25482;DHT22;13395;50.752;4.268;2023-07-28T07:17:37;21.30;99.90
25482;DHT22;13395;50.752;4.268;2023-07-28T07:20:03;21.40;99.90
25482;DHT22;13395;50.752;4.268;2023-07-28T07:22:29;21.40;99.90
25482;DHT22;13395;50.752;4.268;2023-07-28T07:24:55;21.50;99.90
25482;DHT22;13395;50.752;4.268;2023-07-28T07:27:23;21.50;99.90
25482;DHT22;13395;50.752;4.268;2023-07-28T07:29:49;21.40;99.90
25482;DHT22;13395;50.752;4.268;2023-07-28T07:32:14;21.50;99.90
25482;DHT22;13395;50.752;4.268;2023-07-28T07:34:41;21.40;99.90
25482;DHT22;13395;50.752;4.268;2023-07-28T07:37:07;21.30;99.90
25482;DHT22;13395;50.752;4.268;2023-07-28T07:39:32;21.30;99.90
25482;DHT22;13395;50.752;4.268;2023-07-28T07:41:59;21.30;99.90
25482;DHT22;13395;50.752;4.268;2023-07-28T07:44:25;21.40;99.90
25482;DHT22;13395;50.752;4.268;2023-07-28T07:46:50;21.50;99.90
25482;DHT22;13395;50.752;4.268;2023-07-28T07:49:16;21.70;99.90
25482;DHT22;13395;50.752;4.268;2023-07-28T07:51:42;21.70;99.90
25482;DHT22;13395;50.752;4.268;2023-07-28T07:54:07;21.80;99.90
25482;DHT22;13395;50.752;4.268;2023-07-28T07:56:33;21.90;99.90
25482;DHT22;13395;50.752;4.268;2023-07-28T07:58:58;22.00;99.90
25482;DHT22;13395;50.752;4.268;2023-07-28T08:01:24;22.20;99.90
25482;DHT22;13395;50.752;4.268;2023-07-28T08:03:49;22.50;99.90
25482;DHT22;13395;50.752;4.268;2023-07-28T08:06:15;22.80;99.90
25482;DHT22;13395;50.752;4.268;2023-07-28T08:08:41;23.10;99.90
25482;DHT22;13395;50.752;4.268;2023-07-28T08:11:06;23.20;99.90
25482;DHT22;13395;50.752;4.268;2023-07-28T08:13:34;23.10;99.90
25482;DHT22;13395;50.752;4.268;2023-07-28T08:15:59;23.00;99.90
25482;DHT22;13395;50.752;4.268;2023-07-28T08:18:25;22.90;99.90
25482;DHT22;13395;50.752;4.268;2023-07-28T08:20:50;22.90;99.90
25482;DHT22;13395;50.752;4.268;2023-07-28T08:23:16;23.00;99.90
25482;DHT22;13395;50.752;4.268;2023-07-28T08:25:41;23.00;99.90
25482;DHT22;13395;50.752;4.268;2023-07-28T08:28:07;22.90;99.90
25482;DHT22;13395;50.752;4.268;2023-07-28T08:30:33;22.70;99.90
25482;DHT22;13395;50.752;4.268;2023-07-28T08:32:59;22.60;99.90
25482;DHT22;13395;50.752;4.268;2023-07-28T08:35:24;22.50;99.90
25482;DHT22;13395;50.752;4.268;2023-07-28T08:37:50;22.30;99.90
25482;DHT22;13395;50.752;4.268;2023-07-28T08:40:16;22.30;99.90
25482;DHT22;13395;50.752;4.268;2023-07-28T08:42:42;22.30;99.90
25482;DHT22;13395;50.752;4.268;2023-07-28T08:45:08;22.40;99.90
25482;DHT22;13395;50.752;4.268;2023-07-28T08:47:35;22.30;99.90
25482;DHT22;13395;50.752;4.268;2023-07-28T08:50:01;22.30;99.90
25482;DHT22;13395;50.752;4.268;2023-07-28T08:52:26;22.30;99.90
25482;DHT22;13395;50.752;4.268;2023-07-28T08:54:53;22.40;99.90
25482;DHT22;13395;50.752;4.268;2023-07-28T08:57:19;22.30;99.90
25482;DHT22;13395;50.752;4.268;2023-07-28T08:59:45;22.40;99.90
25482;DHT22;13395;50.752;4.268;2023-07-28T09:02:18;22.40;99.90
25482;DHT22;13395;50.752;4.268;2023-07-28T09:04:45;22.40;99.90
25482;DHT22;13395;50.752;4.268;2023-07-28T09:07:11;22.40;99.90
25482;DHT22;13395;50.752;4.268;2023-07-28T09:09:38;22.30;99.90
25482;DHT22;13395;50.752;4.268;2023-07-28T09:12:04;22.20;99.90
25482;DHT22;13395;50.752;4.268;2023-07-28T09:14:30;22.10;99.90
25482;DHT22;13395;50.752;4.268;2023-07-28T09:17:05;22.00;99.90
25482;DHT22;13395;50.752;4.268;2023-07-28T09:19:31;21.90;99.90
25482;DHT22;13395;50.752;4.268;2023-07-28T09:21:58;21.90;99.90
25482;DHT22;13395;50.752;4.268;2023-07-28T09:24:32;22.10;99.90
25482;DHT22;13395;50.752;4.268;2023-07-28T09:26:59;22.30;99.90
25482;DHT22;13395;50.752;4.268;2023-07-28T09:29:25;22.50;99.90
25482;DHT22;13395;50.752;4.268;2023-07-28T09:32:03;22.80;99.90
25482;DHT22;13395;50.752;4.268;2023-07-28T09:34:29;23.20;99.90
25482;DHT22;13395;50.752;4.268;2023-07-28T09:36:56;23.50;99.90
25482;DHT22;13395;50.752;4.268;2023-07-28T10:14:26;24.10;99.90
25482;DHT22;13395;50.752;4.268;2023-07-28T10:16:53;23.80;99.90
25482;DHT22;13395;50.752;4.268;2023-07-28T11:34:24;25.50;99.90
25482;DHT22;13395;50.752;4.268;2023-07-28T11:39:26;25.50;99.90
25482;DHT22;13395;50.752;4.268;2023-07-28T11:49:49;25.60;99.90
25482;DHT22;13395;50.752;4.268;2023-07-28T11:52:15;25.40;99.90
25482;DHT22;13395;50.752;4.268;2023-07-28T11:59:46;25.40;99.90
25482;DHT22;13395;50.752;4.268;2023-07-28T12:02:12;25.50;99.90
25482;DHT22;13395;50.752;4.268;2023-07-28T12:04:39;25.60;99.90
25482;DHT22;13395;50.752;4.268;2023-07-28T12:07:09;25.90;99.90
25482;DHT22;13395;50.752;4.268;2023-07-28T12:12:49;28.10;99.90
25482;DHT22;13395;50.752;4.268;2023-07-28T12:15:30;30.60;99.90
25482;DHT22;13395;50.752;4.268;2023-07-28T12:20:33;31.90;99.90
25482;DHT22;13395;50.752;4.268;2023-07-28T12:22:59;31.50;99.10
25482;DHT22;13395;50.752;4.268;2023-07-28T12:25:25;30.20;98.10
25482;DHT22;13395;50.752;4.268;2023-07-28T12:27:50;29.90;99.50
25482;DHT22;13395;50.752;4.268;2023-07-28T12:30:17;29.60;99.80
25482;DHT22;13395;50.752;4.268;2023-07-28T12:32:43;29.80;99.90
25482;DHT22;13395;50.752;4.268;2023-07-28T12:35:09;29.70;99.80
25482;DHT22;13395;50.752;4.268;2023-07-28T12:37:34;30.30;99.90
25482;DHT22;13395;50.752;4.268;2023-07-28T12:40:00;30.70;98.10
25482;DHT22;13395;50.752;4.268;2023-07-28T12:42:26;31.00;96.30
25482;DHT22;13395;50.752;4.268;2023-07-28T12:44:52;30.90;97.50
25482;DHT22;13395;50.752;4.268;2023-07-28T12:47:23;31.70;94.00
25482;DHT22;13395;50.752;4.268;2023-07-28T12:49:49;31.90;94.10
25482;DHT22;13395;50.752;4.268;2023-07-28T12:52:14;32.30;92.90
25482;DHT22;13395;50.752;4.268;2023-07-28T12:54:41;32.10;93.20
25482;DHT22;13395;50.752;4.268;2023-07-28T12:57:08;31.10;94.00
25482;DHT22;13395;50.752;4.268;2023-07-28T12:59:38;29.70;95.60
25482;DHT22;13395;50.752;4.268;2023-07-28T13:02:04;28.50;97.40
25482;DHT22;13395;50.752;4.268;2023-07-28T13:04:29;27.70;99.10
25482;DHT22;13395;50.752;4.268;2023-07-28T13:06:55;27.10;99.90
25482;DHT22;13395;50.752;4.268;2023-07-28T13:09:21;26.40;99.90
25482;DHT22;13395;50.752;4.268;2023-07-28T13:11:46;25.90;99.90
25482;DHT22;13395;50.752;4.268;2023-07-28T13:14:12;25.70;99.90
25482;DHT22;13395;50.752;4.268;2023-07-28T13:16:37;25.70;99.90
25482;DHT22;13395;50.752;4.268;2023-07-28T13:19:04;25.60;99.90
25482;DHT22;13395;50.752;4.268;2023-07-28T13:21:29;25.50;99.90
25482;DHT22;13395;50.752;4.268;2023-07-28T13:23:55;25.50;99.90
25482;DHT22;13395;50.752;4.268;2023-07-28T13:26:21;25.70;99.90
25482;DHT22;13395;50.752;4.268;2023-07-28T13:28:46;25.90;99.90
25482;DHT22;13395;50.752;4.268;2023-07-28T13:31:15;26.30;99.90
25482;DHT22;13395;50.752;4.268;2023-07-28T13:33:41;26.70;99.90
25482;DHT22;13395;50.752;4.268;2023-07-28T13:36:06;27.40;99.90
25482;DHT22;13395;50.752;4.268;2023-07-28T13:38:35;27.80;99.90
25482;DHT22;13395;50.752;4.268;2023-07-28T13:41:03;28.10;99.90
25482;DHT22;13395;50.752;4.268;2023-07-28T13:43:28;27.90;99.90
25482;DHT22;13395;50.752;4.268;2023-07-28T13:45:54;27.60;99.90
25482;DHT22;13395;50.752;4.268;2023-07-28T13:48:20;27.20;99.90
25482;DHT22;13395;50.752;4.268;2023-07-28T13:50:45;27.10;99.90
25482;DHT22;13395;50.752;4.268;2023-07-28T13:53:11;27.00;99.90
25482;DHT22;13395;50.752;4.268;2023-07-28T13:55:37;26.90;99.90
25482;DHT22;13395;50.752;4.268;2023-07-28T13:58:04;26.70;99.90
25482;DHT22;13395;50.752;4.268;2023-07-28T14:00:29;26.90;99.90
25482;DHT22;13395;50.752;4.268;2023-07-28T14:02:55;26.80;99.90
25482;DHT22;13395;50.752;4.268;2023-07-28T14:05:20;26.70;99.90
25482;DHT22;13395;50.752;4.268;2023-07-28T14:07:48;26.70;99.90
25482;DHT22;13395;50.752;4.268;2023-07-28T14:10:13;26.70;99.90
25482;DHT22;13395;50.752;4.268;2023-07-28T14:12:39;26.70;99.90
25482;DHT22;13395;50.752;4.268;2023-07-28T19:00:22;23.80;99.90
25482;DHT22;13395;50.752;4.268;2023-07-28T19:02:48;23.70;99.90
25482;DHT22;13395;50.752;4.268;2023-07-28T19:59:40;22.90;99.90
25482;DHT22;13395;50.752;4.268;2023-07-28T21:04:14;22.30;99.90
25482;DHT22;13395;50.752;4.268;2023-07-28T21:06:40;22.30;99.90
25482;DHT22;13395;50.752;4.268;2023-07-28T21:09:05;22.20;99.90
25482;DHT22;13395;50.752;4.268;2023-07-28T21:11:31;22.20;99.90
25482;DHT22;13395;50.752;4.268;2023-07-28T21:13:56;22.20;99.90
25482;DHT22;13395;50.752;4.268;2023-07-28T21:16:22;22.20;99.90
25482;DHT22;13395;50.752;4.268;2023-07-28T21:18:47;22.10;99.90
25482;DHT22;13395;50.752;4.268;2023-07-28T21:21:13;22.00;99.90
25482;DHT22;13395;50.752;4.268;2023-07-28T21:23:39;22.00;99.90
25482;DHT22;13395;50.752;4.268;2023-07-28T21:26:04;21.80;99.90
25482;DHT22;13395;50.752;4.268;2023-07-28T21:28:32;21.70;99.90
25482;DHT22;13395;50.752;4.268;2023-07-28T21:30:57;21.70;99.90
25482;DHT22;13395;50.752;4.268;2023-07-28T21:33:23;21.70;99.90
25482;DHT22;13395;50.752;4.268;2023-07-28T21:35:49;21.50;99.90
25482;DHT22;13395;50.752;4.268;2023-07-28T21:38:14;21.50;99.90
25482;DHT22;13395;50.752;4.268;2023-07-28T21:40:40;21.40;99.90
25482;DHT22;13395;50.752;4.268;2023-07-28T21:43:07;21.40;99.90
25482;DHT22;13395;50.752;4.268;2023-07-28T21:45:33;21.40;99.90
25482;DHT22;13395;50.752;4.268;2023-07-28T21:47:58;21.40;99.90
25482;DHT22;13395;50.752;4.268;2023-07-28T21:50:24;21.40;99.90
25482;DHT22;13395;50.752;4.268;2023-07-28T21:52:49;21.50;99.90
25482;DHT22;13395;50.752;4.268;2023-07-28T21:55:15;21.50;99.90
25482;DHT22;13395;50.752;4.268;2023-07-28T21:57:41;21.50;99.90
25482;DHT22;13395;50.752;4.268;2023-07-28T22:00:12;21.50;99.90
25482;DHT22;13395;50.752;4.268;2023-07-28T22:02:38;21.50;99.90
25482;DHT22;13395;50.752;4.268;2023-07-28T22:05:04;21.40;99.90
25482;DHT22;13395;50.752;4.268;2023-07-28T22:07:30;21.40;99.90
25482;DHT22;13395;50.752;4.268;2023-07-28T22:09:56;21.40;99.90
25482;DHT22;13395;50.752;4.268;2023-07-28T22:12:21;21.30;99.90
25482;DHT22;13395;50.752;4.268;2023-07-28T22:14:47;21.30;99.90
25482;DHT22;13395;50.752;4.268;2023-07-28T22:17:12;21.20;99.90
25482;DHT22;13395;50.752;4.268;2023-07-28T22:19:38;21.10;99.90
25482;DHT22;13395;50.752;4.268;2023-07-28T22:22:04;21.10;99.90
25482;DHT22;13395;50.752;4.268;2023-07-28T22:24:29;21.10;99.90
25482;DHT22;13395;50.752;4.268;2023-07-28T22:26:55;21.20;99.90
25482;DHT22;13395;50.752;4.268;2023-07-28T22:29:20;21.20;99.90
25482;DHT22;13395;50.752;4.268;2023-07-28T22:31:46;21.20;99.90
25482;DHT22;13395;50.752;4.268;2023-07-28T22:34:11;21.20;99.90
25482;DHT22;13395;50.752;4.268;2023-07-28T22:36:37;21.20;99.90
25482;DHT22;13395;50.752;4.268;2023-07-28T22:39:03;21.30;99.90
25482;DHT22;13395;50.752;4.268;2023-07-28T22:41:28;21.30;99.90
25482;DHT22;13395;50.752;4.268;2023-07-28T22:43:54;21.40;99.90
25482;DHT22;13395;50.752;4.268;2023-07-28T22:46:19;21.40;99.90
25482;DHT22;13395;50.752;4.268;2023-07-28T22:48:45;21.30;99.90
25482;DHT22;13395;50.752;4.268;2023-07-28T22:51:11;21.40;99.90
25482;DHT22;13395;50.752;4.268;2023-07-28T22:53:37;21.40;99.90
25482;DHT22;13395;50.752;4.268;2023-07-28T22:56:03;21.30;99.90
25482;DHT22;13395;50.752;4.268;2023-07-28T22:58:29;21.30;99.90
25482;DHT22;13395;50.752;4.268;2023-07-28T23:00:54;21.30;99.90
25482;DHT22;13395;50.752;4.268;2023-07-28T23:03:20;21.20;99.90
25482;DHT22;13395;50.752;4.268;2023-07-28T23:05:45;21.20;99.90
25482;DHT22;13395;50.752;4.268;2023-07-28T23:08:11;21.20;99.90
25482;DHT22;13395;50.752;4.268;2023-07-28T23:10:36;21.20;99.90
25482;DHT22;13395;50.752;4.268;2023-07-28T23:13:02;21.20;99.90
25482;DHT22;13395;50.752;4.268;2023-07-28T23:15:28;21.20;99.90
25482;DHT22;13395;50.752;4.268;2023-07-28T23:17:53;21.10;99.90
25482;DHT22;13395;50.752;4.268;2023-07-28T23:20:19;21.00;99.90
25482;DHT22;13395;50.752;4.268;2023-07-28T23:22:44;21.00;99.90
25482;DHT22;13395;50.752;4.268;2023-07-28T23:25:10;21.00;99.90
25482;DHT22;13395;50.752;4.268;2023-07-28T23:27:36;20.90;99.90
25482;DHT22;13395;50.752;4.268;2023-07-28T23:30:02;20.80;99.90
25482;DHT22;13395;50.752;4.268;2023-07-28T23:32:28;20.80;99.90
25482;DHT22;13395;50.752;4.268;2023-07-28T23:34:53;20.70;99.90
25482;DHT22;13395;50.752;4.268;2023-07-28T23:37:23;20.70;99.90
25482;DHT22;13395;50.752;4.268;2023-07-28T23:39:49;20.60;99.90
25482;DHT22;13395;50.752;4.268;2023-07-28T23:42:16;20.60;99.90
25482;DHT22;13395;50.752;4.268;2023-07-28T23:44:41;20.50;99.90
25482;DHT22;13395;50.752;4.268;2023-07-28T23:47:07;20.50;99.90
25482;DHT22;13395;50.752;4.268;2023-07-28T23:49:33;20.40;99.90
25482;DHT22;13395;50.752;4.268;2023-07-28T23:51:59;20.40;99.90
25482;DHT22;13395;50.752;4.268;2023-07-28T23:54:24;20.40;99.90
25482;DHT22;13395;50.752;4.268;2023-07-28T23:56:50;20.40;99.90
25482;DHT22;13395;50.752;4.268;2023-07-28T23:59:16;20.30;99.90
